sensor_id;sensor_type;location;lat;lon;timestamp;P1;durP1;ratioP1;P2;durP2;ratioP2
40515;SDS011;26216;53.724;9.898;2023-04-25T00:01:46;11.43;;;3.97;;
40515;SDS011;26216;53.724;9.898;2023-04-25T00:04:12;10.65;;;3.22;;
40515;SDS011;26216;53.724;9.898;2023-04-25T00:06:38;10.50;;;3.50;;
40515;SDS011;26216;53.724;9.898;2023-04-25T00:09:04;13.68;;;3.88;;
40515;SDS011;26216;53.724;9.898;2023-04-25T00:11:34;12.43;;;3.47;;
40515;SDS011;26216;53.724;9.898;2023-04-25T00:14:00;10.45;;;3.00;;
40515;SDS011;26216;53.724;9.898;2023-04-25T00:16:27;13.23;;;3.95;;
40515;SDS011;26216;53.724;9.898;2023-04-25T00:18:54;14.63;;;3.30;;
40515;SDS011;26216;53.724;9.898;2023-04-25T00:21:20;19.05;;;4.20;;
40515;SDS011;26216;53.724;9.898;2023-04-25T00:23:47;13.05;;;4.05;;
40515;SDS011;26216;53.724;9.898;2023-04-25T00:26:13;11.38;;;3.08;;
40515;SDS011;26216;53.724;9.898;2023-04-25T00:28:39;11.10;;;3.30;;
40515;SDS011;26216;53.724;9.898;2023-04-25T00:31:05;11.27;;;2.70;;
40515;SDS011;26216;53.724;9.898;2023-04-25T00:33:31;12.38;;;3.47;;
40515;SDS011;26216;53.724;9.898;2023-04-25T00:35:57;12.68;;;3.22;;
40515;SDS011;26216;53.724;9.898;2023-04-25T00:38:23;12.15;;;2.90;;
40515;SDS011;26216;53.724;9.898;2023-04-25T00:40:49;9.48;;;2.40;;
40515;SDS011;26216;53.724;9.898;2023-04-25T00:43:15;12.00;;;2.30;;
40515;SDS011;26216;53.724;9.898;2023-04-25T00:45:41;9.88;;;2.83;;
40515;SDS011;26216;53.724;9.898;2023-04-25T00:48:08;14.98;;;3.20;;
40515;SDS011;26216;53.724;9.898;2023-04-25T00:50:34;11.45;;;3.47;;
40515;SDS011;26216;53.724;9.898;2023-04-25T00:53:01;9.38;;;2.58;;
40515;SDS011;26216;53.724;9.898;2023-04-25T00:55:28;7.82;;;2.08;;
40515;SDS011;26216;53.724;9.898;2023-04-25T00:57:56;9.23;;;2.95;;
40515;SDS011;26216;53.724;9.898;2023-04-25T01:00:23;9.25;;;2.83;;
40515;SDS011;26216;53.724;9.898;2023-04-25T01:02:49;13.20;;;3.15;;
40515;SDS011;26216;53.724;9.898;2023-04-25T01:05:15;11.85;;;3.15;;
40515;SDS011;26216;53.724;9.898;2023-04-25T01:07:41;18.13;;;5.20;;
40515;SDS011;26216;53.724;9.898;2023-04-25T01:10:08;16.75;;;4.32;;
40515;SDS011;26216;53.724;9.898;2023-04-25T01:12:34;11.98;;;3.20;;
40515;SDS011;26216;53.724;9.898;2023-04-25T01:15:00;17.67;;;4.18;;
40515;SDS011;26216;53.724;9.898;2023-04-25T01:17:26;16.70;;;4.05;;
40515;SDS011;26216;53.724;9.898;2023-04-25T01:19:52;17.67;;;5.03;;
40515;SDS011;26216;53.724;9.898;2023-04-25T01:22:19;15.77;;;4.03;;
40515;SDS011;26216;53.724;9.898;2023-04-25T01:24:46;16.65;;;4.55;;
40515;SDS011;26216;53.724;9.898;2023-04-25T01:27:12;17.27;;;4.30;;
40515;SDS011;26216;53.724;9.898;2023-04-25T01:29:38;17.70;;;4.78;;
40515;SDS011;26216;53.724;9.898;2023-04-25T01:32:04;12.65;;;3.88;;
40515;SDS011;26216;53.724;9.898;2023-04-25T01:34:31;12.23;;;3.63;;
40515;SDS011;26216;53.724;9.898;2023-04-25T01:36:57;15.13;;;3.72;;
40515;SDS011;26216;53.724;9.898;2023-04-25T01:39:26;16.27;;;4.18;;
40515;SDS011;26216;53.724;9.898;2023-04-25T01:41:52;13.75;;;3.63;;
40515;SDS011;26216;53.724;9.898;2023-04-25T01:44:17;10.68;;;2.88;;
40515;SDS011;26216;53.724;9.898;2023-04-25T01:46:44;12.35;;;3.25;;
40515;SDS011;26216;53.724;9.898;2023-04-25T01:49:10;12.48;;;3.50;;
40515;SDS011;26216;53.724;9.898;2023-04-25T01:51:36;16.10;;;4.03;;
40515;SDS011;26216;53.724;9.898;2023-04-25T01:54:02;11.30;;;3.33;;
40515;SDS011;26216;53.724;9.898;2023-04-25T01:56:31;12.98;;;3.70;;
40515;SDS011;26216;53.724;9.898;2023-04-25T01:58:58;15.65;;;3.92;;
40515;SDS011;26216;53.724;9.898;2023-04-25T02:01:24;12.00;;;3.38;;
40515;SDS011;26216;53.724;9.898;2023-04-25T02:03:50;14.32;;;3.97;;
40515;SDS011;26216;53.724;9.898;2023-04-25T02:06:16;16.88;;;3.65;;
40515;SDS011;26216;53.724;9.898;2023-04-25T02:08:42;19.10;;;3.97;;
40515;SDS011;26216;53.724;9.898;2023-04-25T02:11:07;9.57;;;2.80;;
40515;SDS011;26216;53.724;9.898;2023-04-25T02:13:33;9.73;;;2.50;;
40515;SDS011;26216;53.724;9.898;2023-04-25T02:15:59;11.30;;;2.95;;
40515;SDS011;26216;53.724;9.898;2023-04-25T02:18:25;10.75;;;3.22;;
40515;SDS011;26216;53.724;9.898;2023-04-25T02:20:51;8.68;;;2.85;;
40515;SDS011;26216;53.724;9.898;2023-04-25T02:23:17;11.77;;;2.92;;
40515;SDS011;26216;53.724;9.898;2023-04-25T02:25:44;9.60;;;2.70;;
40515;SDS011;26216;53.724;9.898;2023-04-25T02:28:10;11.30;;;3.78;;
40515;SDS011;26216;53.724;9.898;2023-04-25T02:30:36;8.13;;;2.40;;
40515;SDS011;26216;53.724;9.898;2023-04-25T02:33:02;10.80;;;2.53;;
40515;SDS011;26216;53.724;9.898;2023-04-25T02:35:46;11.85;;;3.13;;
40515;SDS011;26216;53.724;9.898;2023-04-25T02:38:31;10.25;;;2.97;;
40515;SDS011;26216;53.724;9.898;2023-04-25T02:41:15;13.48;;;3.17;;
40515;SDS011;26216;53.724;9.898;2023-04-25T02:44:00;9.30;;;2.78;;
40515;SDS011;26216;53.724;9.898;2023-04-25T02:46:44;12.90;;;2.90;;
40515;SDS011;26216;53.724;9.898;2023-04-25T02:49:28;9.30;;;3.05;;
40515;SDS011;26216;53.724;9.898;2023-04-25T02:52:13;13.15;;;4.47;;
40515;SDS011;26216;53.724;9.898;2023-04-25T02:54:58;12.10;;;3.08;;
40515;SDS011;26216;53.724;9.898;2023-04-25T02:57:42;13.68;;;3.65;;
40515;SDS011;26216;53.724;9.898;2023-04-25T03:00:27;14.48;;;3.88;;
40515;SDS011;26216;53.724;9.898;2023-04-25T03:03:12;13.25;;;3.53;;
40515;SDS011;26216;53.724;9.898;2023-04-25T03:05:56;14.25;;;3.25;;
40515;SDS011;26216;53.724;9.898;2023-04-25T03:08:40;10.15;;;3.10;;
40515;SDS011;26216;53.724;9.898;2023-04-25T03:11:25;8.93;;;3.33;;
40515;SDS011;26216;53.724;9.898;2023-04-25T03:14:09;11.90;;;3.70;;
40515;SDS011;26216;53.724;9.898;2023-04-25T03:16:54;11.82;;;3.42;;
40515;SDS011;26216;53.724;9.898;2023-04-25T03:19:38;9.52;;;3.58;;
40515;SDS011;26216;53.724;9.898;2023-04-25T03:22:23;13.30;;;3.20;;
40515;SDS011;26216;53.724;9.898;2023-04-25T03:25:08;9.70;;;2.67;;
40515;SDS011;26216;53.724;9.898;2023-04-25T03:27:52;9.07;;;2.65;;
40515;SDS011;26216;53.724;9.898;2023-04-25T03:30:36;8.23;;;2.22;;
40515;SDS011;26216;53.724;9.898;2023-04-25T03:33:21;11.82;;;2.67;;
40515;SDS011;26216;53.724;9.898;2023-04-25T03:36:06;8.38;;;2.22;;
40515;SDS011;26216;53.724;9.898;2023-04-25T03:38:58;7.65;;;2.13;;
40515;SDS011;26216;53.724;9.898;2023-04-25T03:41:34;5.68;;;1.92;;
40515;SDS011;26216;53.724;9.898;2023-04-25T03:44:00;7.95;;;2.92;;
40515;SDS011;26216;53.724;9.898;2023-04-25T03:46:26;13.07;;;3.10;;
40515;SDS011;26216;53.724;9.898;2023-04-25T03:48:51;11.10;;;2.72;;
40515;SDS011;26216;53.724;9.898;2023-04-25T03:51:17;9.65;;;3.00;;
40515;SDS011;26216;53.724;9.898;2023-04-25T03:53:43;11.13;;;2.25;;
40515;SDS011;26216;53.724;9.898;2023-04-25T03:56:09;9.75;;;2.85;;
40515;SDS011;26216;53.724;9.898;2023-04-25T03:58:35;9.55;;;2.05;;
40515;SDS011;26216;53.724;9.898;2023-04-25T04:01:01;9.35;;;2.80;;
40515;SDS011;26216;53.724;9.898;2023-04-25T04:03:33;10.60;;;3.13;;
40515;SDS011;26216;53.724;9.898;2023-04-25T04:06:02;12.55;;;2.88;;
40515;SDS011;26216;53.724;9.898;2023-04-25T04:08:31;7.50;;;2.03;;
40515;SDS011;26216;53.724;9.898;2023-04-25T04:10:58;10.52;;;2.67;;
40515;SDS011;26216;53.724;9.898;2023-04-25T04:13:27;9.52;;;2.78;;
40515;SDS011;26216;53.724;9.898;2023-04-25T04:15:54;9.68;;;2.30;;
40515;SDS011;26216;53.724;9.898;2023-04-25T04:18:20;8.35;;;2.08;;
40515;SDS011;26216;53.724;9.898;2023-04-25T04:20:47;7.25;;;2.03;;
40515;SDS011;26216;53.724;9.898;2023-04-25T04:23:13;6.30;;;2.47;;
40515;SDS011;26216;53.724;9.898;2023-04-25T04:25:39;7.93;;;2.00;;
40515;SDS011;26216;53.724;9.898;2023-04-25T04:28:05;8.32;;;2.22;;
40515;SDS011;26216;53.724;9.898;2023-04-25T04:30:32;9.63;;;2.58;;
40515;SDS011;26216;53.724;9.898;2023-04-25T04:33:01;8.15;;;2.25;;
40515;SDS011;26216;53.724;9.898;2023-04-25T04:35:28;8.57;;;2.47;;
40515;SDS011;26216;53.724;9.898;2023-04-25T04:37:54;8.43;;;2.75;;
40515;SDS011;26216;53.724;9.898;2023-04-25T04:40:20;7.88;;;2.15;;
40515;SDS011;26216;53.724;9.898;2023-04-25T04:42:46;4.80;;;1.80;;
40515;SDS011;26216;53.724;9.898;2023-04-25T04:45:13;6.75;;;2.03;;
40515;SDS011;26216;53.724;9.898;2023-04-25T04:47:39;9.05;;;2.58;;
40515;SDS011;26216;53.724;9.898;2023-04-25T04:50:06;8.77;;;2.47;;
40515;SDS011;26216;53.724;9.898;2023-04-25T04:52:37;8.63;;;3.35;;
40515;SDS011;26216;53.724;9.898;2023-04-25T04:55:04;8.25;;;1.83;;
40515;SDS011;26216;53.724;9.898;2023-04-25T04:57:31;6.70;;;2.10;;
40515;SDS011;26216;53.724;9.898;2023-04-25T04:59:58;5.05;;;2.33;;
40515;SDS011;26216;53.724;9.898;2023-04-25T05:02:24;7.78;;;1.90;;
40515;SDS011;26216;53.724;9.898;2023-04-25T05:04:50;9.45;;;2.50;;
40515;SDS011;26216;53.724;9.898;2023-04-25T05:07:17;6.88;;;2.08;;
40515;SDS011;26216;53.724;9.898;2023-04-25T05:09:44;10.02;;;2.67;;
40515;SDS011;26216;53.724;9.898;2023-04-25T05:12:09;7.03;;;1.95;;
40515;SDS011;26216;53.724;9.898;2023-04-25T05:14:35;5.68;;;2.05;;
40515;SDS011;26216;53.724;9.898;2023-04-25T05:17:01;6.47;;;1.92;;
40515;SDS011;26216;53.724;9.898;2023-04-25T05:19:30;6.28;;;1.75;;
40515;SDS011;26216;53.724;9.898;2023-04-25T05:21:56;4.82;;;1.73;;
40515;SDS011;26216;53.724;9.898;2023-04-25T05:24:21;5.78;;;2.00;;
40515;SDS011;26216;53.724;9.898;2023-04-25T05:26:47;9.40;;;2.33;;
40515;SDS011;26216;53.724;9.898;2023-04-25T05:29:13;7.00;;;1.92;;
40515;SDS011;26216;53.724;9.898;2023-04-25T05:31:39;7.63;;;1.67;;
40515;SDS011;26216;53.724;9.898;2023-04-25T05:34:05;5.45;;;2.78;;
40515;SDS011;26216;53.724;9.898;2023-04-25T05:36:31;3.25;;;1.15;;
40515;SDS011;26216;53.724;9.898;2023-04-25T05:38:57;6.47;;;2.10;;
40515;SDS011;26216;53.724;9.898;2023-04-25T05:41:23;7.72;;;1.80;;
40515;SDS011;26216;53.724;9.898;2023-04-25T05:43:49;7.68;;;2.33;;
40515;SDS011;26216;53.724;9.898;2023-04-25T05:46:15;5.80;;;1.60;;
40515;SDS011;26216;53.724;9.898;2023-04-25T05:48:44;6.50;;;1.95;;
40515;SDS011;26216;53.724;9.898;2023-04-25T05:51:11;5.55;;;1.60;;
40515;SDS011;26216;53.724;9.898;2023-04-25T05:53:37;4.35;;;1.85;;
40515;SDS011;26216;53.724;9.898;2023-04-25T05:56:03;6.57;;;1.75;;
40515;SDS011;26216;53.724;9.898;2023-04-25T05:58:28;4.05;;;1.17;;
40515;SDS011;26216;53.724;9.898;2023-04-25T06:00:55;5.50;;;1.30;;
40515;SDS011;26216;53.724;9.898;2023-04-25T06:03:21;7.32;;;1.90;;
40515;SDS011;26216;53.724;9.898;2023-04-25T06:05:47;5.40;;;1.20;;
40515;SDS011;26216;53.724;9.898;2023-04-25T06:08:13;7.03;;;1.45;;
40515;SDS011;26216;53.724;9.898;2023-04-25T06:10:39;4.07;;;1.20;;
40515;SDS011;26216;53.724;9.898;2023-04-25T06:13:05;3.95;;;1.48;;
40515;SDS011;26216;53.724;9.898;2023-04-25T06:15:31;6.55;;;1.70;;
40515;SDS011;26216;53.724;9.898;2023-04-25T06:17:58;4.47;;;1.65;;
40515;SDS011;26216;53.724;9.898;2023-04-25T06:20:24;5.63;;;1.83;;
40515;SDS011;26216;53.724;9.898;2023-04-25T06:22:50;4.53;;;1.35;;
40515;SDS011;26216;53.724;9.898;2023-04-25T06:25:17;5.45;;;1.67;;
40515;SDS011;26216;53.724;9.898;2023-04-25T06:27:43;3.55;;;1.38;;
40515;SDS011;26216;53.724;9.898;2023-04-25T06:30:09;7.20;;;1.83;;
40515;SDS011;26216;53.724;9.898;2023-04-25T06:32:37;7.75;;;2.05;;
40515;SDS011;26216;53.724;9.898;2023-04-25T06:35:04;5.80;;;1.70;;
40515;SDS011;26216;53.724;9.898;2023-04-25T06:37:30;8.82;;;2.50;;
40515;SDS011;26216;53.724;9.898;2023-04-25T06:39:56;10.43;;;3.10;;
40515;SDS011;26216;53.724;9.898;2023-04-25T06:42:22;9.38;;;2.40;;
40515;SDS011;26216;53.724;9.898;2023-04-25T06:44:48;7.05;;;2.05;;
40515;SDS011;26216;53.724;9.898;2023-04-25T06:47:14;7.30;;;2.13;;
40515;SDS011;26216;53.724;9.898;2023-04-25T06:49:40;8.52;;;2.00;;
40515;SDS011;26216;53.724;9.898;2023-04-25T06:52:07;4.03;;;1.80;;
40515;SDS011;26216;53.724;9.898;2023-04-25T06:54:33;5.97;;;2.03;;
40515;SDS011;26216;53.724;9.898;2023-04-25T06:57:00;7.95;;;1.73;;
40515;SDS011;26216;53.724;9.898;2023-04-25T06:59:26;8.23;;;2.20;;
40515;SDS011;26216;53.724;9.898;2023-04-25T07:01:52;10.50;;;2.33;;
40515;SDS011;26216;53.724;9.898;2023-04-25T07:04:18;6.47;;;1.65;;
40515;SDS011;26216;53.724;9.898;2023-04-25T07:06:44;4.10;;;1.50;;
40515;SDS011;26216;53.724;9.898;2023-04-25T07:09:10;4.00;;;1.13;;
40515;SDS011;26216;53.724;9.898;2023-04-25T07:11:37;6.78;;;1.70;;
40515;SDS011;26216;53.724;9.898;2023-04-25T07:14:03;6.00;;;1.77;;
40515;SDS011;26216;53.724;9.898;2023-04-25T07:16:29;6.70;;;1.48;;
40515;SDS011;26216;53.724;9.898;2023-04-25T07:18:55;6.25;;;1.58;;
40515;SDS011;26216;53.724;9.898;2023-04-25T07:21:21;6.75;;;1.45;;
40515;SDS011;26216;53.724;9.898;2023-04-25T07:23:47;6.53;;;1.73;;
40515;SDS011;26216;53.724;9.898;2023-04-25T07:26:13;6.72;;;1.80;;
40515;SDS011;26216;53.724;9.898;2023-04-25T07:28:39;7.25;;;1.95;;
40515;SDS011;26216;53.724;9.898;2023-04-25T07:31:05;8.00;;;1.75;;
40515;SDS011;26216;53.724;9.898;2023-04-25T07:33:31;6.90;;;1.73;;
40515;SDS011;26216;53.724;9.898;2023-04-25T07:35:58;5.78;;;1.42;;
40515;SDS011;26216;53.724;9.898;2023-04-25T07:38:25;6.43;;;1.60;;
40515;SDS011;26216;53.724;9.898;2023-04-25T07:40:51;6.72;;;1.58;;
40515;SDS011;26216;53.724;9.898;2023-04-25T07:43:17;5.60;;;1.55;;
40515;SDS011;26216;53.724;9.898;2023-04-25T07:45:43;4.25;;;1.30;;
40515;SDS011;26216;53.724;9.898;2023-04-25T07:48:10;5.57;;;1.50;;
40515;SDS011;26216;53.724;9.898;2023-04-25T07:50:36;5.53;;;1.58;;
40515;SDS011;26216;53.724;9.898;2023-04-25T07:53:02;6.53;;;1.85;;
40515;SDS011;26216;53.724;9.898;2023-04-25T07:55:28;5.70;;;1.70;;
40515;SDS011;26216;53.724;9.898;2023-04-25T07:57:54;8.30;;;2.08;;
40515;SDS011;26216;53.724;9.898;2023-04-25T08:00:21;18.58;;;3.15;;
40515;SDS011;26216;53.724;9.898;2023-04-25T08:02:47;6.65;;;1.77;;
40515;SDS011;26216;53.724;9.898;2023-04-25T08:05:13;5.65;;;1.40;;
40515;SDS011;26216;53.724;9.898;2023-04-25T08:07:40;3.35;;;1.08;;
40515;SDS011;26216;53.724;9.898;2023-04-25T08:10:07;4.43;;;1.33;;
40515;SDS011;26216;53.724;9.898;2023-04-25T08:12:35;3.97;;;1.10;;
40515;SDS011;26216;53.724;9.898;2023-04-25T08:15:02;7.53;;;1.50;;
40515;SDS011;26216;53.724;9.898;2023-04-25T08:17:31;8.23;;;1.65;;
40515;SDS011;26216;53.724;9.898;2023-04-25T08:20:05;5.75;;;1.60;;
40515;SDS011;26216;53.724;9.898;2023-04-25T08:22:32;6.45;;;1.95;;
40515;SDS011;26216;53.724;9.898;2023-04-25T08:24:59;5.97;;;1.50;;
40515;SDS011;26216;53.724;9.898;2023-04-25T08:27:25;6.38;;;1.95;;
40515;SDS011;26216;53.724;9.898;2023-04-25T08:29:51;7.75;;;1.80;;
40515;SDS011;26216;53.724;9.898;2023-04-25T08:32:18;8.85;;;2.15;;
40515;SDS011;26216;53.724;9.898;2023-04-25T08:34:45;8.48;;;2.60;;
40515;SDS011;26216;53.724;9.898;2023-04-25T08:37:11;7.10;;;2.03;;
40515;SDS011;26216;53.724;9.898;2023-04-25T08:39:37;9.68;;;2.17;;
40515;SDS011;26216;53.724;9.898;2023-04-25T08:42:05;7.25;;;1.63;;
40515;SDS011;26216;53.724;9.898;2023-04-25T08:44:35;6.68;;;1.58;;
40515;SDS011;26216;53.724;9.898;2023-04-25T08:47:05;6.20;;;2.13;;
40515;SDS011;26216;53.724;9.898;2023-04-25T08:49:34;7.80;;;1.80;;
40515;SDS011;26216;53.724;9.898;2023-04-25T08:52:01;7.65;;;1.83;;
40515;SDS011;26216;53.724;9.898;2023-04-25T08:54:31;7.13;;;1.70;;
40515;SDS011;26216;53.724;9.898;2023-04-25T08:57:00;11.35;;;2.95;;
40515;SDS011;26216;53.724;9.898;2023-04-25T08:59:30;8.40;;;2.10;;
40515;SDS011;26216;53.724;9.898;2023-04-25T09:01:56;9.35;;;2.47;;
40515;SDS011;26216;53.724;9.898;2023-04-25T09:04:22;9.13;;;2.15;;
40515;SDS011;26216;53.724;9.898;2023-04-25T09:06:48;10.48;;;2.20;;
40515;SDS011;26216;53.724;9.898;2023-04-25T09:09:14;8.85;;;2.28;;
40515;SDS011;26216;53.724;9.898;2023-04-25T09:11:40;6.60;;;1.55;;
40515;SDS011;26216;53.724;9.898;2023-04-25T09:14:10;10.25;;;2.65;;
40515;SDS011;26216;53.724;9.898;2023-04-25T09:16:56;5.25;;;1.52;;
40515;SDS011;26216;53.724;9.898;2023-04-25T09:19:27;6.38;;;1.92;;
40515;SDS011;26216;53.724;9.898;2023-04-25T09:21:58;8.05;;;1.85;;
40515;SDS011;26216;53.724;9.898;2023-04-25T09:24:44;8.93;;;1.85;;
40515;SDS011;26216;53.724;9.898;2023-04-25T09:27:18;3.45;;;1.25;;
40515;SDS011;26216;53.724;9.898;2023-04-25T09:29:45;7.60;;;1.60;;
40515;SDS011;26216;53.724;9.898;2023-04-25T09:34:46;7.13;;;2.10;;
40515;SDS011;26216;53.724;9.898;2023-04-25T09:37:21;6.45;;;1.70;;
40515;SDS011;26216;53.724;9.898;2023-04-25T09:39:49;6.18;;;1.63;;
40515;SDS011;26216;53.724;9.898;2023-04-25T09:42:24;6.85;;;1.20;;
40515;SDS011;26216;53.724;9.898;2023-04-25T09:44:52;5.60;;;1.67;;
40515;SDS011;26216;53.724;9.898;2023-04-25T09:47:19;6.90;;;2.03;;
40515;SDS011;26216;53.724;9.898;2023-04-25T09:49:48;6.63;;;1.52;;
40515;SDS011;26216;53.724;9.898;2023-04-25T09:52:18;8.07;;;2.00;;
40515;SDS011;26216;53.724;9.898;2023-04-25T09:54:46;6.30;;;1.65;;
40515;SDS011;26216;53.724;9.898;2023-04-25T09:57:16;6.80;;;1.30;;
40515;SDS011;26216;53.724;9.898;2023-04-25T09:59:48;6.28;;;1.48;;
40515;SDS011;26216;53.724;9.898;2023-04-25T10:02:19;6.35;;;1.10;;
40515;SDS011;26216;53.724;9.898;2023-04-25T10:04:50;7.43;;;1.67;;
40515;SDS011;26216;53.724;9.898;2023-04-25T10:07:19;5.22;;;1.30;;
40515;SDS011;26216;53.724;9.898;2023-04-25T10:09:48;6.30;;;1.48;;
40515;SDS011;26216;53.724;9.898;2023-04-25T10:12:16;6.85;;;1.65;;
40515;SDS011;26216;53.724;9.898;2023-04-25T10:14:43;6.75;;;1.45;;
40515;SDS011;26216;53.724;9.898;2023-04-25T10:17:10;8.43;;;1.90;;
40515;SDS011;26216;53.724;9.898;2023-04-25T10:19:39;6.25;;;1.65;;
40515;SDS011;26216;53.724;9.898;2023-04-25T10:22:07;7.00;;;1.98;;
40515;SDS011;26216;53.724;9.898;2023-04-25T10:24:35;7.63;;;1.67;;
40515;SDS011;26216;53.724;9.898;2023-04-25T10:27:02;6.35;;;1.63;;
40515;SDS011;26216;53.724;9.898;2023-04-25T10:29:29;6.22;;;1.75;;
40515;SDS011;26216;53.724;9.898;2023-04-25T10:31:55;5.65;;;1.90;;
40515;SDS011;26216;53.724;9.898;2023-04-25T10:34:41;5.22;;;1.60;;
40515;SDS011;26216;53.724;9.898;2023-04-25T10:37:11;5.30;;;1.13;;
40515;SDS011;26216;53.724;9.898;2023-04-25T10:39:38;3.38;;;0.90;;
40515;SDS011;26216;53.724;9.898;2023-04-25T10:42:06;7.28;;;1.65;;
40515;SDS011;26216;53.724;9.898;2023-04-25T10:44:33;6.78;;;1.73;;
40515;SDS011;26216;53.724;9.898;2023-04-25T10:47:00;7.65;;;1.60;;
40515;SDS011;26216;53.724;9.898;2023-04-25T10:49:35;8.27;;;1.83;;
40515;SDS011;26216;53.724;9.898;2023-04-25T10:54:56;6.47;;;1.90;;
40515;SDS011;26216;53.724;9.898;2023-04-25T11:00:09;6.50;;;1.42;;
40515;SDS011;26216;53.724;9.898;2023-04-25T11:02:40;4.25;;;1.05;;
40515;SDS011;26216;53.724;9.898;2023-04-25T11:08:00;4.22;;;1.10;;
40515;SDS011;26216;53.724;9.898;2023-04-25T11:10:32;4.43;;;0.93;;
40515;SDS011;26216;53.724;9.898;2023-04-25T11:13:00;5.50;;;0.98;;
40515;SDS011;26216;53.724;9.898;2023-04-25T11:15:26;3.25;;;1.10;;
40515;SDS011;26216;53.724;9.898;2023-04-25T11:17:53;7.03;;;1.23;;
40515;SDS011;26216;53.724;9.898;2023-04-25T11:20:20;4.22;;;1.20;;
40515;SDS011;26216;53.724;9.898;2023-04-25T11:22:47;6.18;;;1.40;;
40515;SDS011;26216;53.724;9.898;2023-04-25T11:25:14;7.18;;;2.00;;
40515;SDS011;26216;53.724;9.898;2023-04-25T11:27:51;8.98;;;2.08;;
40515;SDS011;26216;53.724;9.898;2023-04-25T11:30:17;5.38;;;1.40;;
40515;SDS011;26216;53.724;9.898;2023-04-25T11:32:45;7.53;;;1.50;;
40515;SDS011;26216;53.724;9.898;2023-04-25T11:35:11;7.53;;;1.55;;
40515;SDS011;26216;53.724;9.898;2023-04-25T11:37:41;3.88;;;1.17;;
40515;SDS011;26216;53.724;9.898;2023-04-25T11:40:08;4.57;;;1.02;;
40515;SDS011;26216;53.724;9.898;2023-04-25T11:42:38;5.20;;;1.45;;
40515;SDS011;26216;53.724;9.898;2023-04-25T11:45:08;3.80;;;1.20;;
40515;SDS011;26216;53.724;9.898;2023-04-25T11:47:35;2.38;;;0.70;;
40515;SDS011;26216;53.724;9.898;2023-04-25T11:50:06;4.22;;;0.95;;
40515;SDS011;26216;53.724;9.898;2023-04-25T11:52:37;5.47;;;1.27;;
40515;SDS011;26216;53.724;9.898;2023-04-25T11:55:13;5.20;;;0.95;;
40515;SDS011;26216;53.724;9.898;2023-04-25T11:57:41;6.97;;;1.35;;
40515;SDS011;26216;53.724;9.898;2023-04-25T12:00:15;5.50;;;1.27;;
40515;SDS011;26216;53.724;9.898;2023-04-25T12:02:46;4.32;;;1.13;;
40515;SDS011;26216;53.724;9.898;2023-04-25T12:05:16;5.20;;;1.30;;
40515;SDS011;26216;53.724;9.898;2023-04-25T12:07:42;7.65;;;1.52;;
40515;SDS011;26216;53.724;9.898;2023-04-25T12:10:09;4.78;;;1.25;;
40515;SDS011;26216;53.724;9.898;2023-04-25T12:12:36;6.03;;;1.45;;
40515;SDS011;26216;53.724;9.898;2023-04-25T12:15:10;6.68;;;1.40;;
40515;SDS011;26216;53.724;9.898;2023-04-25T12:17:41;5.78;;;1.52;;
40515;SDS011;26216;53.724;9.898;2023-04-25T12:20:10;7.15;;;1.35;;
40515;SDS011;26216;53.724;9.898;2023-04-25T12:22:42;3.75;;;1.30;;
40515;SDS011;26216;53.724;9.898;2023-04-25T12:30:58;14.98;;;2.22;;
40515;SDS011;26216;53.724;9.898;2023-04-25T12:33:32;8.48;;;1.48;;
40515;SDS011;26216;53.724;9.898;2023-04-25T12:35:59;4.10;;;1.10;;
40515;SDS011;26216;53.724;9.898;2023-04-25T12:38:29;6.82;;;1.52;;
40515;SDS011;26216;53.724;9.898;2023-04-25T12:40:57;5.63;;;1.30;;
40515;SDS011;26216;53.724;9.898;2023-04-25T12:43:23;6.90;;;2.22;;
40515;SDS011;26216;53.724;9.898;2023-04-25T12:45:49;6.63;;;1.83;;
40515;SDS011;26216;53.724;9.898;2023-04-25T12:48:19;5.57;;;1.25;;
40515;SDS011;26216;53.724;9.898;2023-04-25T12:50:46;3.17;;;0.95;;
40515;SDS011;26216;53.724;9.898;2023-04-25T12:53:17;3.73;;;1.00;;
40515;SDS011;26216;53.724;9.898;2023-04-25T12:55:44;4.20;;;1.08;;
40515;SDS011;26216;53.724;9.898;2023-04-25T12:58:14;5.88;;;1.45;;
40515;SDS011;26216;53.724;9.898;2023-04-25T13:00:41;5.28;;;1.20;;
40515;SDS011;26216;53.724;9.898;2023-04-25T13:03:08;4.93;;;1.50;;
40515;SDS011;26216;53.724;9.898;2023-04-25T13:05:36;7.40;;;1.73;;
40515;SDS011;26216;53.724;9.898;2023-04-25T13:08:03;5.05;;;1.13;;
40515;SDS011;26216;53.724;9.898;2023-04-25T13:10:36;5.72;;;1.38;;
40515;SDS011;26216;53.724;9.898;2023-04-25T13:13:04;5.82;;;1.50;;
40515;SDS011;26216;53.724;9.898;2023-04-25T13:15:30;8.55;;;2.00;;
40515;SDS011;26216;53.724;9.898;2023-04-25T13:17:56;9.40;;;1.88;;
40515;SDS011;26216;53.724;9.898;2023-04-25T13:20:22;7.57;;;2.10;;
40515;SDS011;26216;53.724;9.898;2023-04-25T13:22:48;7.65;;;1.83;;
40515;SDS011;26216;53.724;9.898;2023-04-25T13:25:15;4.50;;;1.45;;
40515;SDS011;26216;53.724;9.898;2023-04-25T13:27:41;7.43;;;2.10;;
40515;SDS011;26216;53.724;9.898;2023-04-25T13:30:09;7.18;;;2.50;;
40515;SDS011;26216;53.724;9.898;2023-04-25T13:32:36;5.95;;;1.20;;
40515;SDS011;26216;53.724;9.898;2023-04-25T13:35:03;9.07;;;2.08;;
40515;SDS011;26216;53.724;9.898;2023-04-25T13:37:30;4.75;;;1.45;;
40515;SDS011;26216;53.724;9.898;2023-04-25T13:40:01;7.65;;;1.92;;
40515;SDS011;26216;53.724;9.898;2023-04-25T13:42:33;7.43;;;1.80;;
40515;SDS011;26216;53.724;9.898;2023-04-25T13:44:58;6.82;;;2.03;;
40515;SDS011;26216;53.724;9.898;2023-04-25T13:47:25;4.35;;;1.33;;
40515;SDS011;26216;53.724;9.898;2023-04-25T13:49:51;5.85;;;1.73;;
40515;SDS011;26216;53.724;9.898;2023-04-25T13:52:17;4.35;;;1.40;;
40515;SDS011;26216;53.724;9.898;2023-04-25T13:54:43;4.97;;;1.15;;
40515;SDS011;26216;53.724;9.898;2023-04-25T13:57:10;6.60;;;1.42;;
40515;SDS011;26216;53.724;9.898;2023-04-25T13:59:37;5.18;;;1.35;;
40515;SDS011;26216;53.724;9.898;2023-04-25T14:02:03;5.47;;;1.85;;
40515;SDS011;26216;53.724;9.898;2023-04-25T14:04:29;3.17;;;1.00;;
40515;SDS011;26216;53.724;9.898;2023-04-25T14:06:55;6.15;;;1.67;;
40515;SDS011;26216;53.724;9.898;2023-04-25T14:09:21;7.95;;;1.48;;
40515;SDS011;26216;53.724;9.898;2023-04-25T14:11:53;5.28;;;1.13;;
40515;SDS011;26216;53.724;9.898;2023-04-25T14:14:19;6.63;;;1.50;;
40515;SDS011;26216;53.724;9.898;2023-04-25T14:16:49;3.95;;;1.40;;
40515;SDS011;26216;53.724;9.898;2023-04-25T14:19:19;4.20;;;1.27;;
40515;SDS011;26216;53.724;9.898;2023-04-25T14:21:45;8.23;;;1.77;;
40515;SDS011;26216;53.724;9.898;2023-04-25T14:24:11;6.90;;;1.40;;
40515;SDS011;26216;53.724;9.898;2023-04-25T14:26:38;7.00;;;1.73;;
40515;SDS011;26216;53.724;9.898;2023-04-25T14:29:05;8.20;;;1.42;;
40515;SDS011;26216;53.724;9.898;2023-04-25T14:31:33;6.50;;;1.33;;
40515;SDS011;26216;53.724;9.898;2023-04-25T14:33:59;10.10;;;2.08;;
40515;SDS011;26216;53.724;9.898;2023-04-25T14:36:26;9.65;;;1.65;;
40515;SDS011;26216;53.724;9.898;2023-04-25T14:38:54;5.65;;;1.40;;
40515;SDS011;26216;53.724;9.898;2023-04-25T14:41:20;5.53;;;1.45;;
40515;SDS011;26216;53.724;9.898;2023-04-25T14:43:46;10.02;;;1.75;;
40515;SDS011;26216;53.724;9.898;2023-04-25T14:46:12;5.50;;;1.42;;
40515;SDS011;26216;53.724;9.898;2023-04-25T14:48:38;5.80;;;1.38;;
40515;SDS011;26216;53.724;9.898;2023-04-25T14:51:05;7.72;;;1.63;;
40515;SDS011;26216;53.724;9.898;2023-04-25T14:53:31;5.25;;;1.40;;
40515;SDS011;26216;53.724;9.898;2023-04-25T14:55:57;5.80;;;1.35;;
40515;SDS011;26216;53.724;9.898;2023-04-25T14:58:23;6.18;;;1.40;;
40515;SDS011;26216;53.724;9.898;2023-04-25T15:00:50;5.43;;;1.58;;
40515;SDS011;26216;53.724;9.898;2023-04-25T15:03:16;5.85;;;1.40;;
40515;SDS011;26216;53.724;9.898;2023-04-25T15:05:43;3.33;;;1.23;;
40515;SDS011;26216;53.724;9.898;2023-04-25T15:08:09;4.20;;;1.00;;
40515;SDS011;26216;53.724;9.898;2023-04-25T15:10:35;4.13;;;1.17;;